Time,TemperatureF,DewpointF,PressureIn,WindDirection,WindDirectionDegrees,WindSpeedMPH,WindSpeedGustMPH,Humidity,HourlyPrecipIn,Conditions,Clouds,dailyrainin,SoftwareType,DateUTC
2013-02-02 00:03:00,21.0,14.0,29.76,West,270,0.0,0.0,75,0.00,,,0.00,,2013-02-02 05:03:00,
2013-02-02 00:12:00,21.0,14.0,29.76,West,270,0.0,0.0,75,0.00,,,0.00,,2013-02-02 05:12:00,
2013-02-02 00:22:00,21.0,14.0,29.75,West,270,0.0,0.0,75,0.00,,,0.00,,2013-02-02 05:22:00,
2013-02-02 00:33:00,20.0,14.0,29.75,West,270,0.0,0.0,76,0.00,,,0.00,,2013-02-02 05:33:00,
2013-02-02 00:52:00,20.0,14.0,29.74,West,270,0.0,0.0,77,0.00,,,0.00,,2013-02-02 05:52:00,
2013-02-02 01:02:00,20.0,14.0,29.74,West,270,0.0,0.0,77,0.00,,,0.00,,2013-02-02 06:02:00,
2013-02-02 01:12:00,20.0,14.0,29.74,West,270,0.0,0.0,77,0.00,,,0.00,,2013-02-02 06:12:00,
2013-02-02 01:22:00,20.0,14.0,29.74,West,270,0.0,0.0,78,0.00,,,0.00,,2013-02-02 06:22:00,
2013-02-02 01:32:00,20.0,14.0,29.73,West,270,0.0,0.0,78,0.00,,,0.00,,2013-02-02 06:32:00,
2013-02-02 01:42:00,20.0,14.0,29.73,West,270,0.0,0.0,78,0.00,,,0.00,,2013-02-02 06:42:00,
2013-02-02 01:52:00,19.0,14.0,29.73,West,270,0.0,0.0,79,0.00,,,0.00,,2013-02-02 06:52:00,
2013-02-02 02:02:00,19.0,14.0,29.73,West,270,0.0,0.0,80,0.00,,,0.00,,2013-02-02 07:02:00,
2013-02-02 02:12:00,19.0,14.0,29.73,West,270,0.0,0.0,80,0.00,,,0.00,,2013-02-02 07:12:00,
2013-02-02 02:21:00,19.0,14.0,29.73,West,270,0.0,0.0,80,0.00,,,0.00,,2013-02-02 07:21:00,
2013-02-02 02:32:00,19.0,14.0,29.73,West,270,0.0,0.0,81,0.00,,,0.00,,2013-02-02 07:32:00,
2013-02-02 02:42:00,19.0,14.0,29.73,West,270,0.0,0.0,81,0.00,,,0.00,,2013-02-02 07:42:00,
2013-02-02 02:52:00,19.0,14.0,29.73,West,270,0.0,0.0,82,0.00,,,0.00,,2013-02-02 07:52:00,
2013-02-02 03:01:00,18.0,13.0,29.73,West,270,0.0,0.0,82,0.00,,,0.00,,2013-02-02 08:01:00,
2013-02-02 03:11:00,18.0,13.0,29.73,West,270,0.0,0.0,82,0.00,,,0.00,,2013-02-02 08:11:00,
2013-02-02 03:21:00,18.0,13.0,29.72,West,270,0.0,0.0,82,0.00,,,0.00,,2013-02-02 08:21:00,
2013-02-02 03:31:00,18.0,13.0,29.72,West,270,0.0,0.0,82,0.00,,,0.00,,2013-02-02 08:31:00,
2013-02-02 03:41:00,18.0,13.0,29.72,West,270,0.0,0.0,82,0.00,,,0.00,,2013-02-02 08:41:00,
2013-02-02 03:53:00,18.0,13.0,29.72,West,270,0.0,0.0,82,0.00,,,0.00,,2013-02-02 08:53:00,
2013-02-02 04:01:00,17.0,13.0,29.72,West,270,0.0,0.0,83,0.00,,,0.00,,2013-02-02 09:01:00,
2013-02-02 04:11:00,17.0,13.0,29.72,West,270,0.0,0.0,83,0.00,,,0.00,,2013-02-02 09:11:00,
2013-02-02 04:22:00,17.0,13.0,29.72,West,270,0.0,0.0,83,0.00,,,0.00,,2013-02-02 09:22:00,
2013-02-02 04:31:00,17.0,13.0,29.72,West,270,0.0,0.0,83,0.00,,,0.00,,2013-02-02 09:31:00,
2013-02-02 04:52:00,17.0,13.0,29.72,West,270,0.0,0.0,83,0.00,,,0.00,,2013-02-02 09:52:00,
2013-02-02 05:02:00,17.0,13.0,29.71,West,270,0.0,0.0,84,0.00,,,0.00,,2013-02-02 10:02:00,
2013-02-02 05:11:00,17.0,13.0,29.71,West,270,0.0,0.0,84,0.00,,,0.00,,2013-02-02 10:11:00,
2013-02-02 05:21:00,17.0,13.0,29.71,West,270,0.0,0.0,84,0.00,,,0.00,,2013-02-02 10:21:00,
2013-02-02 05:32:00,17.0,13.0,29.71,West,270,0.0,0.0,84,0.00,,,0.00,,2013-02-02 10:32:00,
2013-02-02 05:42:00,17.0,13.0,29.71,West,270,0.0,0.0,84,0.00,,,0.00,,2013-02-02 10:42:00,
2013-02-02 05:52:00,17.0,13.0,29.71,West,270,0.0,0.0,84,0.00,,,0.00,,2013-02-02 10:52:00,
2013-02-02 06:01:00,17.0,13.0,29.71,West,270,0.0,0.0,84,0.00,,,0.00,,2013-02-02 11:01:00,
2013-02-02 06:11:00,17.0,13.0,29.71,West,270,0.0,0.0,84,0.00,,,0.00,,2013-02-02 11:11:00,
2013-02-02 06:22:00,17.0,13.0,29.71,West,270,0.0,0.0,84,0.00,,,0.00,,2013-02-02 11:22:00,
2013-02-02 06:32:00,17.0,13.0,29.71,NW,315,0.0,3.0,85,0.00,,,0.00,,2013-02-02 11:32:00,
2013-02-02 06:42:00,17.0,13.0,29.71,NW,315,0.0,3.0,85,0.00,,,0.00,,2013-02-02 11:42:00,
2013-02-02 06:52:00,17.0,13.0,29.72,NW,315,0.0,0.0,85,0.00,,,0.00,,2013-02-02 11:52:00,
2013-02-02 07:02:00,17.0,13.0,29.72,NW,315,0.0,3.0,85,0.00,,,0.00,,2013-02-02 12:02:00,
2013-02-02 07:11:00,17.0,13.0,29.72,NW,315,0.0,3.0,85,0.00,,,0.00,,2013-02-02 12:11:00,
2013-02-02 07:22:00,17.0,13.0,29.72,NW,315,0.0,0.0,85,0.00,,,0.00,,2013-02-02 12:22:00,
2013-02-02 07:32:00,17.0,13.0,29.72,NW,315,1.0,2.0,85,0.00,,,0.00,,2013-02-02 12:32:00,
2013-02-02 07:42:00,17.0,13.0,29.72,NW,315,1.0,2.0,85,0.00,,,0.00,,2013-02-02 12:42:00,
2013-02-02 07:52:00,17.0,13.0,29.73,NW,315,0.0,0.0,85,0.00,,,0.00,,2013-02-02 12:52:00,
2013-02-02 08:03:00,16.0,12.0,29.72,NW,315,0.0,0.0,85,0.00,,,0.00,,2013-02-02 13:03:00,
2013-02-02 08:11:00,16.0,12.0,29.72,NW,315,0.0,0.0,85,0.00,,,0.00,,2013-02-02 13:11:00,
2013-02-02 08:22:00,16.0,13.0,29.72,NW,315,0.0,0.0,86,0.00,,,0.00,,2013-02-02 13:22:00,
2013-02-02 08:32:00,17.0,14.0,29.72,NW,315,0.0,0.0,86,0.00,,,0.00,,2013-02-02 13:32:00,
2013-02-02 08:42:00,17.0,14.0,29.72,NW,315,0.0,0.0,86,0.00,,,0.00,,2013-02-02 13:42:00,
2013-02-02 08:52:00,18.0,15.0,29.71,NW,315,0.0,0.0,86,0.00,,,0.00,,2013-02-02 13:52:00,
2013-02-02 09:02:00,19.0,16.0,29.71,NW,315,0.0,0.0,86,0.00,,,0.00,,2013-02-02 14:02:00,
2013-02-02 09:11:00,19.0,16.0,29.71,NW,315,0.0,0.0,86,0.00,,,0.00,,2013-02-02 14:11:00,
2013-02-02 09:22:00,21.0,17.0,29.71,NW,315,0.0,0.0,86,0.00,,,0.00,,2013-02-02 14:22:00,
2013-02-02 09:32:00,25.0,21.0,29.71,NW,315,0.0,0.0,85,0.00,,,0.00,,2013-02-02 14:32:00,
2013-02-02 09:42:00,25.0,21.0,29.71,NW,315,0.0,0.0,85,0.00,,,0.00,,2013-02-02 14:42:00,
2013-02-02 09:52:00,32.0,25.0,29.71,SE,135,3.0,3.0,76,0.00,,,0.00,,2013-02-02 14:52:00,
2013-02-02 10:03:00,38.0,28.0,29.71,ENE,67,0.0,1.0,66,0.00,,,0.00,,2013-02-02 15:03:00,
2013-02-02 10:22:00,43.0,27.0,29.70,NE,45,0.0,2.0,53,0.00,,,0.00,,2013-02-02 15:22:00,
2013-02-02 10:32:00,44.0,28.0,29.70,NE,45,0.0,1.0,53,0.00,,,0.00,,2013-02-02 15:32:00,
2013-02-02 10:52:00,47.0,27.0,29.70,SW,225,0.0,0.0,46,0.00,,,0.00,,2013-02-02 15:52:00,
2013-02-02 11:03:00,48.0,26.0,29.70,NNE,22,0.0,5.0,42,0.00,,,0.00,,2013-02-02 16:03:00,
2013-02-02 11:22:00,47.0,24.0,29.70,ESE,112,0.0,3.0,40,0.00,,,0.00,,2013-02-02 16:22:00,
2013-02-02 11:32:00,48.0,23.0,29.70,NNE,22,3.0,4.0,37,0.00,,,0.00,,2013-02-02 16:32:00,
2013-02-02 11:52:00,49.0,22.0,29.70,NNE,22,7.0,7.0,34,0.00,,,0.00,,2013-02-02 16:52:00,
2013-02-02 12:02:00,49.0,22.0,29.70,West,270,0.0,5.0,34,0.00,,,0.00,,2013-02-02 17:02:00,
2013-02-02 12:22:00,49.0,22.0,29.69,North,0,7.0,7.0,34,0.00,,,0.00,,2013-02-02 17:22:00,
2013-02-02 12:32:00,49.0,23.0,29.67,North,359,4.0,5.0,35,0.00,,,0.00,,2013-02-02 17:32:00,
2013-02-02 12:42:00,49.0,23.0,29.67,North,359,4.0,5.0,35,0.00,,,0.00,,2013-02-02 17:42:00,
2013-02-02 12:52:00,50.0,23.0,29.66,ESE,112,1.0,4.0,34,0.00,,,0.00,,2013-02-02 17:52:00,
2013-02-02 13:02:00,52.0,25.0,29.64,WNW,292,3.0,3.0,34,0.00,,,0.00,,2013-02-02 18:02:00,
2013-02-02 13:22:00,52.0,24.0,29.62,East,96,3.0,6.0,33,0.00,,,0.00,,2013-02-02 18:22:00,
2013-02-02 13:32:00,53.0,25.0,29.60,NW,315,3.0,3.0,33,0.00,,,0.00,,2013-02-02 18:32:00,
2013-02-02 13:52:00,53.0,25.0,29.60,NW,315,2.0,3.0,33,0.00,,,0.00,,2013-02-02 18:52:00,
2013-02-02 14:02:00,52.0,25.0,29.59,SSW,205,1.0,7.0,34,0.00,,,0.00,,2013-02-02 19:02:00,
2013-02-02 14:12:00,51.0,24.0,29.58,NW,315,2.0,2.0,35,0.00,,,0.00,,2013-02-02 19:12:00,
2013-02-02 14:21:00,51.0,24.0,29.58,NW,315,2.0,2.0,35,0.00,,,0.00,,2013-02-02 19:21:00,
2013-02-02 14:32:00,51.0,24.0,29.57,WNW,292,3.0,4.0,35,0.00,,,0.00,,2013-02-02 19:32:00,
2013-02-02 14:42:00,51.0,24.0,29.57,WNW,292,3.0,4.0,35,0.00,,,0.00,,2013-02-02 19:42:00,
2013-02-02 14:52:00,50.0,24.0,29.57,NW,326,4.0,9.0,36,0.00,,,0.00,,2013-02-02 19:52:00,
2013-02-02 15:01:00,52.0,27.0,29.55,NNE,22,9.0,9.0,37,0.00,,,0.00,,2013-02-02 20:01:00,
2013-02-02 15:11:00,52.0,27.0,29.55,NNE,22,9.0,9.0,37,0.00,,,0.00,,2013-02-02 20:11:00,
2013-02-02 15:22:00,52.0,27.0,29.54,South,180,5.0,5.0,37,0.00,,,0.00,,2013-02-02 20:22:00,
2013-02-02 15:32:00,52.0,27.0,29.54,NW,315,4.0,5.0,38,0.00,,,0.00,,2013-02-02 20:32:00,
2013-02-02 15:42:00,52.0,27.0,29.54,NW,315,4.0,5.0,38,0.00,,,0.00,,2013-02-02 20:42:00,
2013-02-02 15:52:00,52.0,28.0,29.52,West,270,2.0,7.0,40,0.00,,,0.00,,2013-02-02 20:52:00,
2013-02-02 16:02:00,52.0,29.0,29.52,NW,321,2.0,4.0,41,0.00,,,0.00,,2013-02-02 21:02:00,
2013-02-02 16:11:00,52.0,29.0,29.52,NW,321,2.0,4.0,41,0.00,,,0.00,,2013-02-02 21:11:00,
2013-02-02 16:21:00,52.0,29.0,29.51,NNE,22,2.0,3.0,41,0.00,,,0.00,,2013-02-02 21:21:00,
2013-02-02 16:32:00,53.0,30.0,29.51,WNW,283,4.0,5.0,41,0.00,,,0.00,,2013-02-02 21:32:00,
2013-02-02 16:42:00,53.0,30.0,29.51,WNW,283,4.0,5.0,41,0.00,,,0.00,,2013-02-02 21:42:00,
2013-02-02 16:52:00,52.0,30.0,29.51,WNW,292,6.0,6.0,42,0.00,,,0.00,,2013-02-02 21:52:00,
2013-02-02 17:02:00,51.0,31.0,29.51,WNW,300,3.0,7.0,47,0.00,,,0.00,,2013-02-02 22:02:00,
2013-02-02 17:12:00,51.0,31.0,29.51,WNW,300,3.0,7.0,47,0.00,,,0.00,,2013-02-02 22:12:00,
2013-02-02 17:21:00,50.0,33.0,29.51,NNE,22,0.0,1.0,52,0.00,,,0.00,,2013-02-02 22:21:00,
2013-02-02 17:32:00,48.0,34.0,29.53,North,0,2.0,5.0,59,0.00,,,0.00,,2013-02-02 22:32:00,
2013-02-02 17:42:00,48.0,34.0,29.53,North,0,2.0,5.0,59,0.00,,,0.00,,2013-02-02 22:42:00,
2013-02-02 17:52:00,46.0,35.0,29.56,NNE,30,2.0,10.0,66,0.00,,,0.00,,2013-02-02 22:52:00,
2013-02-02 18:02:00,44.0,35.0,29.56,NNW,337,3.0,3.0,71,0.02,,,0.02,,2013-02-02 23:02:00,
2013-02-02 18:11:00,44.0,35.0,29.56,NNW,337,3.0,3.0,71,0.02,,,0.02,,2013-02-02 23:11:00,
2013-02-02 18:22:00,43.0,36.0,29.56,SW,225,0.0,3.0,75,0.06,,,0.06,,2013-02-02 23:22:00,
2013-02-02 18:32:00,42.0,35.0,29.54,West,270,0.0,0.0,77,0.08,,,0.08,,2013-02-02 23:32:00,
2013-02-02 18:42:00,42.0,35.0,29.54,West,270,0.0,0.0,77,0.08,,,0.08,,2013-02-02 23:42:00,
2013-02-02 18:52:00,41.0,35.0,29.55,NW,315,0.0,1.0,79,0.10,,,0.10,,2013-02-02 23:52:00,
2013-02-02 19:02:00,41.0,35.0,29.56,NW,315,0.0,0.0,80,0.12,,,0.14,,2013-02-03 00:02:00,
2013-02-02 19:11:00,41.0,35.0,29.56,NW,315,0.0,0.0,80,0.12,,,0.14,,2013-02-03 00:11:00,
2013-02-02 19:22:00,41.0,36.0,29.55,NW,315,0.0,0.0,81,0.10,,,0.16,,2013-02-03 00:22:00,
2013-02-02 19:32:00,40.0,35.0,29.53,West,270,1.0,1.0,83,0.12,,,0.20,,2013-02-03 00:32:00,
2013-02-02 19:42:00,40.0,35.0,29.53,West,270,1.0,1.0,83,0.12,,,0.20,,2013-02-03 00:42:00,
2013-02-02 19:52:00,40.0,36.0,29.52,NE,45,0.0,0.0,84,0.10,,,0.20,,2013-02-03 00:52:00,
2013-02-02 20:02:00,40.0,36.0,29.51,NW,315,0.0,0.0,84,0.06,,,0.20,,2013-02-03 01:02:00,
2013-02-02 20:11:00,39.0,35.0,29.51,NNW,337,0.0,0.0,85,0.02,,,0.20,,2013-02-03 01:11:00,
2013-02-02 20:21:00,39.0,35.0,29.51,NNW,337,0.0,0.0,85,0.02,,,0.20,,2013-02-03 01:21:00,
2013-02-02 20:32:00,39.0,35.0,29.52,NNW,337,0.0,0.0,85,0.00,,,0.20,,2013-02-03 01:32:00,
2013-02-02 20:42:00,39.0,35.0,29.52,NNW,337,0.0,0.0,85,0.00,,,0.20,,2013-02-03 01:42:00,
2013-02-02 20:52:00,38.0,34.0,29.52,NNW,337,0.0,0.0,84,0.00,,,0.20,,2013-02-03 01:52:00,
2013-02-02 21:01:00,37.0,33.0,29.53,NNW,337,0.0,0.0,84,0.00,,,0.20,,2013-02-03 02:01:00,
2013-02-02 21:11:00,37.0,33.0,29.53,NNW,337,0.0,0.0,84,0.00,,,0.20,,2013-02-03 02:11:00,
2013-02-02 21:21:00,36.0,32.0,29.53,NNW,337,0.0,0.0,85,0.00,,,0.20,,2013-02-03 02:21:00,
2013-02-02 21:32:00,34.0,30.0,29.53,NNW,337,0.0,0.0,85,0.00,,,0.20,,2013-02-03 02:32:00,
2013-02-02 21:52:00,34.0,30.0,29.52,NNW,337,0.0,0.0,85,0.00,,,0.20,,2013-02-03 02:52:00,
2013-02-02 22:02:00,33.0,29.0,29.52,NNW,337,0.0,0.0,86,0.00,,,0.20,,2013-02-03 03:02:00,
2013-02-02 22:11:00,32.0,28.0,29.53,NNW,337,0.0,0.0,86,0.00,,,0.20,,2013-02-03 03:11:00,
2013-02-02 22:21:00,32.0,28.0,29.53,NNW,337,0.0,0.0,86,0.00,,,0.20,,2013-02-03 03:21:00,
2013-02-02 22:32:00,32.0,28.0,29.54,NNW,337,0.0,0.0,86,0.00,,,0.20,,2013-02-03 03:32:00,
2013-02-02 22:52:00,31.0,28.0,29.54,NNW,337,0.0,0.0,87,0.00,,,0.20,,2013-02-03 03:52:00,
2013-02-02 23:01:00,31.0,28.0,29.54,NNW,337,0.0,0.0,87,0.00,,,0.20,,2013-02-03 04:01:00,
2013-02-02 23:11:00,30.0,27.0,29.54,NNW,337,0.0,0.0,87,0.00,,,0.20,,2013-02-03 04:11:00,
2013-02-02 23:21:00,30.0,27.0,29.54,NNW,337,0.0,0.0,87,0.00,,,0.20,,2013-02-03 04:21:00,
2013-02-02 23:32:00,30.0,27.0,29.54,NNW,337,0.0,0.0,87,0.00,,,0.20,,2013-02-03 04:32:00,
2013-02-02 23:52:00,30.0,27.0,29.54,NNW,337,0.0,0.0,87,0.00,,,0.20,,2013-02-03 04:52:00,